Time;durP1;ratioP1;P1;durP2;ratioP2;P2;SDS_P1;SDS_P2;PMS_P1;PMS_P2;Temp;Humidity;BMP_temperature;BMP_pressure;BME280_temperature;BME280_humidity;BME280_pressure;Samples;Min_cycle;Max_cycle;Signal;HPM_P1;HPM_P2
2021/03/06 00:00:42;;;;;;;9.35;5.68;;;0.30;1.00;;;;;;4939070;28;20263;-78
2021/03/06 00:03:09;;;;;;;9.18;5.90;;;0.30;1.00;;;;;;4927864;28;21799;-78
2021/03/06 00:05:35;;;;;;;9.00;6.60;;;0.30;1.00;;;;;;4936583;28;20810;-79
2021/03/06 00:08:01;;;;;;;10.18;5.40;;;0.30;1.00;;;;;;4932783;28;20531;-78
2021/03/06 00:10:27;;;;;;;7.95;5.40;;;0.20;1.00;;;;;;4937247;28;20324;-78
2021/03/06 00:12:54;;;;;;;6.70;5.60;;;0.20;1.00;;;;;;4931911;28;20240;-79
2021/03/06 00:15:23;;;;;;;5.88;5.38;;;0.20;1.00;;;;;;4945421;28;20235;-78
2021/03/06 00:17:49;;;;;;;7.43;6.10;;;0.20;1.00;;;;;;4939042;28;20319;-79
2021/03/06 00:20:17;;;;;;;6.78;6.05;;;0.20;1.00;;;;;;4947613;28;20229;-79
2021/03/06 00:22:43;;;;;;;10.13;5.15;;;0.20;1.00;;;;;;4940232;28;20283;-79
2021/03/06 00:25:12;;;;;;;12.18;6.13;;;0.10;1.00;;;;;;4946778;28;20229;-79
2021/03/06 00:27:38;;;;;;;8.90;5.68;;;0.00;1.00;;;;;;4941286;28;20240;-79
2021/03/06 00:30:07;;;;;;;6.03;4.70;;;0.00;1.00;;;;;;4935552;28;20255;-78
2021/03/06 00:32:33;;;;;;;6.03;5.35;;;0.00;1.00;;;;;;4946219;28;20237;-79
2021/03/06 00:35:00;;;;;;;8.35;6.10;;;-0.10;1.00;;;;;;4937048;28;20329;-79
2021/03/06 00:37:27;;;;;;;10.93;6.32;;;-0.10;1.00;;;;;;4949795;28;20264;-79
2021/03/06 00:39:53;;;;;;;8.18;6.45;;;-0.10;1.00;;;;;;4936065;28;20333;-79
2021/03/06 00:42:19;;;;;;;7.43;5.53;;;-0.20;1.00;;;;;;4951092;28;20224;-79
2021/03/06 00:44:45;;;;;;;10.13;5.80;;;-0.20;1.00;;;;;;4938129;28;21157;-79
2021/03/06 00:47:11;;;;;;;9.68;6.35;;;-0.20;1.00;;;;;;4947582;28;20233;-79
2021/03/06 00:49:38;;;;;;;7.38;5.90;;;-0.20;1.00;;;;;;4950555;28;20232;-79
2021/03/06 00:52:04;;;;;;;8.48;5.38;;;-0.20;1.00;;;;;;4945212;28;20225;-78
2021/03/06 00:54:31;;;;;;;8.27;5.72;;;-0.20;1.00;;;;;;4934939;28;20239;-78
2021/03/06 00:56:57;;;;;;;10.32;6.90;;;-0.20;1.00;;;;;;4947621;28;20258;-79
2021/03/06 00:59:24;;;;;;;7.65;5.60;;;-0.20;1.00;;;;;;4941449;28;20962;-78
2021/03/06 01:01:50;;;;;;;7.80;5.40;;;-0.10;1.00;;;;;;4935066;28;20225;-79
2021/03/06 01:04:16;;;;;;;6.80;4.88;;;-0.10;1.00;;;;;;4941738;28;20264;-78
2021/03/06 01:06:43;;;;;;;12.65;5.93;;;-0.20;1.00;;;;;;4926863;28;20263;-78
2021/03/06 01:09:10;;;;;;;7.28;5.07;;;-0.10;1.00;;;;;;4944175;28;20736;-78
2021/03/06 01:11:37;;;;;;;7.32;5.15;;;-0.10;1.00;;;;;;4937566;28;20282;-79
2021/03/06 01:14:04;;;;;;;7.20;5.60;;;-0.10;1.00;;;;;;4953963;28;20229;-79
2021/03/06 01:16:30;;;;;;;6.65;4.85;;;-0.10;1.00;;;;;;4940774;28;20305;-79
2021/03/06 01:18:57;;;;;;;7.38;4.90;;;-0.10;1.00;;;;;;4941442;28;20798;-79
2021/03/06 01:21:23;;;;;;;6.45;4.80;;;-0.10;1.00;;;;;;4930810;28;20232;-79
2021/03/06 01:23:49;;;;;;;6.80;4.93;;;-0.10;1.00;;;;;;4958456;28;20234;-78
2021/03/06 01:26:15;;;;;;;6.55;5.15;;;-0.10;1.00;;;;;;4935903;28;20258;-79
2021/03/06 01:28:42;;;;;;;6.70;5.05;;;-0.10;1.00;;;;;;4944925;28;20338;-79
2021/03/06 01:31:08;;;;;;;6.95;5.50;;;-0.10;1.00;;;;;;4933683;28;20319;-79
2021/03/06 01:33:35;;;;;;;6.55;5.50;;;-0.10;1.00;;;;;;4941242;28;20724;-79
2021/03/06 01:36:01;;;;;;;8.20;5.72;;;-0.20;1.00;;;;;;4935047;28;21081;-79
2021/03/06 01:38:27;;;;;;;9.38;5.72;;;-0.20;1.00;;;;;;4945413;28;20312;-79
2021/03/06 01:40:53;;;;;;;7.78;5.00;;;-0.20;1.00;;;;;;4943707;28;21161;-79
2021/03/06 01:43:21;;;;;;;6.35;5.32;;;-0.20;1.00;;;;;;4929589;28;20291;-79
2021/03/06 01:45:47;;;;;;;6.82;5.50;;;-0.30;1.00;;;;;;4945280;28;20252;-80
2021/03/06 01:48:14;;;;;;;5.53;4.60;;;-0.30;1.00;;;;;;4924263;28;20251;-78
2021/03/06 01:50:42;;;;;;;6.65;4.90;;;-0.30;1.00;;;;;;4958424;28;20239;-79
2021/03/06 01:53:10;;;;;;;7.00;5.25;;;-0.40;1.00;;;;;;4947933;28;20311;-79
2021/03/06 01:55:39;;;;;;;6.72;4.90;;;-0.40;1.00;;;;;;4945505;28;20239;-80
2021/03/06 01:58:06;;;;;;;7.55;4.80;;;-0.50;1.00;;;;;;4933097;28;20237;-78
2021/03/06 02:00:33;;;;;;;9.35;6.18;;;-0.50;1.00;;;;;;4938156;28;20232;-79
2021/03/06 02:03:01;;;;;;;6.85;5.03;;;-0.50;1.00;;;;;;4936362;28;20272;-80
2021/03/06 02:05:28;;;;;;;8.40;5.22;;;-0.50;1.00;;;;;;4946417;28;20256;-80
2021/03/06 02:07:55;;;;;;;7.43;5.15;;;-0.50;1.00;;;;;;4935573;28;20225;-80
2021/03/06 02:10:26;;;;;;;8.20;5.25;;;-0.50;1.00;;;;;;4939114;28;20220;-80
2021/03/06 02:13:01;;;;;;;7.03;5.05;;;-0.50;1.00;;;;;;4932434;28;20253;-79
2021/03/06 02:15:42;;;;;;;6.90;5.05;;;-0.50;1.00;;;;;;4941963;28;20220;-80
2021/03/06 02:18:13;;;;;;;7.65;4.80;;;-0.50;1.00;;;;;;4937474;28;20805;-79
2021/03/06 02:20:54;;;;;;;8.02;5.00;;;-0.60;1.00;;;;;;4947301;28;20229;-79
2021/03/06 02:23:45;;;;;;;8.02;5.55;;;-0.60;1.00;;;;;;4929475;28;20231;-79
2021/03/06 02:26:26;;;;;;;6.18;5.30;;;-0.60;1.00;;;;;;4945558;28;20233;-79
2021/03/06 02:29:10;;;;;;;7.13;5.60;;;-0.60;1.00;;;;;;4927932;28;20284;-79
2021/03/06 02:31:40;;;;;;;8.38;6.22;;;-0.60;1.00;;;;;;4942262;28;20233;-79
2021/03/06 02:34:10;;;;;;;7.40;5.00;;;-0.60;1.00;;;;;;4931053;28;20229;-80
2021/03/06 02:36:41;;;;;;;8.52;5.85;;;-0.50;1.00;;;;;;4939439;28;20225;-79
2021/03/06 02:39:13;;;;;;;5.80;4.80;;;-0.50;1.00;;;;;;4939643;28;20255;-79
2021/03/06 02:41:42;;;;;;;6.90;4.90;;;-0.40;1.00;;;;;;4945285;28;20229;-79
2021/03/06 02:44:11;;;;;;;7.07;5.03;;;-0.30;1.00;;;;;;4931253;28;20226;-80
2021/03/06 02:46:39;;;;;;;5.35;4.85;;;-0.20;1.00;;;;;;4937549;28;20237;-79
2021/03/06 02:49:05;;;;;;;6.35;4.60;;;-0.10;1.00;;;;;;4928944;28;23370;-79
2021/03/06 02:51:36;;;;;;;11.57;5.35;;;-0.10;1.00;;;;;;4940537;28;21135;-79
2021/03/06 02:54:03;;;;;;;6.28;5.47;;;-0.10;1.00;;;;;;4934346;28;20220;-79
2021/03/06 02:56:30;;;;;;;6.57;4.32;;;0.00;1.00;;;;;;4944759;28;20367;-79
2021/03/06 02:59:12;;;;;;;6.90;4.63;;;-0.10;1.00;;;;;;4943387;28;20239;-78
2021/03/06 03:01:54;;;;;;;7.10;4.60;;;-0.20;1.00;;;;;;4940084;28;20228;-78
2021/03/06 03:04:26;;;;;;;7.00;4.88;;;-0.20;1.00;;;;;;4937182;28;20285;-79
2021/03/06 03:07:00;;;;;;;9.40;5.13;;;-0.30;1.00;;;;;;4940041;28;21191;-78
2021/03/06 03:09:30;;;;;;;7.20;5.10;;;-0.40;1.00;;;;;;4941835;28;20233;-80
2021/03/06 03:12:00;;;;;;;5.97;5.30;;;-0.50;1.00;;;;;;4940479;28;20277;-79
2021/03/06 03:14:32;;;;;;;5.80;4.65;;;-0.50;1.00;;;;;;4943093;28;20275;-79
2021/03/06 03:17:07;;;;;;;9.70;6.25;;;-0.60;1.00;;;;;;4935581;28;20236;-78
2021/03/06 03:19:37;;;;;;;6.93;5.22;;;-0.50;1.00;;;;;;4947216;28;20247;-80
2021/03/06 03:22:05;;;;;;;6.90;4.72;;;-0.50;1.00;;;;;;4940147;28;20255;-80
2021/03/06 03:24:36;;;;;;;6.57;5.00;;;-0.60;1.00;;;;;;4945637;28;20221;-80
2021/03/06 03:27:08;;;;;;;8.80;6.00;;;-0.60;1.00;;;;;;4940711;28;20267;-79
2021/03/06 03:29:35;;;;;;;7.68;5.60;;;-0.60;1.00;;;;;;4941672;28;20267;-80
2021/03/06 03:32:03;;;;;;;6.22;4.63;;;-0.60;1.00;;;;;;4929222;28;20342;-79
2021/03/06 03:34:31;;;;;;;7.40;5.40;;;-0.60;1.00;;;;;;4949262;28;20231;-78
2021/03/06 03:36:58;;;;;;;10.88;5.90;;;-0.50;1.00;;;;;;4935796;28;20312;-79
2021/03/06 03:39:24;;;;;;;10.63;5.00;;;-0.60;1.00;;;;;;4947152;28;20311;-80
2021/03/06 03:41:51;;;;;;;7.97;4.70;;;-0.60;1.00;;;;;;4935961;28;20228;-78
2021/03/06 03:44:19;;;;;;;5.80;5.30;;;-0.60;1.00;;;;;;4954095;28;20236;-79
2021/03/06 03:46:46;;;;;;;6.47;5.35;;;-0.60;1.00;;;;;;4942901;28;20736;-79
2021/03/06 03:49:17;;;;;;;5.70;5.10;;;-0.60;1.00;;;;;;4946946;28;20649;-78
2021/03/06 03:51:43;;;;;;;9.07;6.40;;;-0.60;1.00;;;;;;4936658;28;20221;-79
2021/03/06 03:54:10;;;;;;;9.32;5.30;;;-0.60;1.00;;;;;;4952792;28;20275;-79
2021/03/06 03:56:36;;;;;;;12.00;6.10;;;-0.60;1.00;;;;;;4941208;28;20225;-79
2021/03/06 03:59:02;;;;;;;8.77;5.93;;;-0.60;1.00;;;;;;5086871;23;20227;-79
2021/03/06 04:01:38;;;;;;;8.20;5.00;;;-0.60;1.00;;;;;;4970467;28;20232;-78
2021/03/06 04:04:06;;;;;;;7.13;5.53;;;-0.60;1.00;;;;;;4982018;28;20303;-78
2021/03/06 04:06:33;;;;;;;12.25;5.88;;;-0.70;1.00;;;;;;4959249;28;20233;-79
2021/03/06 04:09:00;;;;;;;8.50;5.32;;;-0.70;1.00;;;;;;4976612;28;20229;-79
2021/03/06 04:11:26;;;;;;;7.05;5.05;;;-0.70;1.00;;;;;;4975466;28;20229;-81
2021/03/06 04:13:53;;;;;;;9.27;5.28;;;-0.70;1.00;;;;;;4967819;28;20225;-78
2021/03/06 04:16:19;;;;;;;7.55;5.15;;;-0.70;1.00;;;;;;4955681;28;20273;-78
2021/03/06 04:18:46;;;;;;;9.88;5.20;;;-0.70;1.00;;;;;;4974999;28;20271;-78
2021/03/06 04:21:12;;;;;;;7.10;5.22;;;-0.70;1.00;;;;;;4985507;28;20248;-77
2021/03/06 04:23:39;;;;;;;7.45;4.95;;;-0.80;1.00;;;;;;4978619;28;20224;-79
2021/03/06 04:26:06;;;;;;;10.40;5.00;;;-0.80;1.00;;;;;;4984042;28;20271;-79
2021/03/06 04:28:32;;;;;;;9.95;6.18;;;-0.90;1.00;;;;;;4967605;28;20227;-80
2021/03/06 04:30:58;;;;;;;5.82;5.10;;;-0.90;1.00;;;;;;4947274;28;20235;-79
2021/03/06 04:33:24;;;;;;;5.97;5.47;;;-1.00;1.00;;;;;;4959419;28;20220;-79
2021/03/06 04:35:51;;;;;;;9.93;5.65;;;-1.00;1.00;;;;;;4957232;28;20370;-79
2021/03/06 04:38:17;;;;;;;6.47;4.32;;;-1.00;1.00;;;;;;4950242;28;20240;-78
2021/03/06 04:40:44;;;;;;;10.77;5.30;;;-1.00;1.00;;;;;;4965547;28;20311;-78
2021/03/06 04:43:11;;;;;;;10.77;4.70;;;-1.00;1.00;;;;;;4962409;28;21032;-79
2021/03/06 04:45:37;;;;;;;6.97;5.45;;;-1.00;1.00;;;;;;4967600;28;20235;-79
2021/03/06 04:48:05;;;;;;;9.48;5.60;;;-1.00;1.00;;;;;;4974010;28;20219;-78
2021/03/06 04:50:31;;;;;;;6.57;5.57;;;-1.00;1.00;;;;;;4955655;28;20287;-79
2021/03/06 04:52:58;;;;;;;6.80;5.30;;;-1.00;1.00;;;;;;4963519;28;20225;-79
2021/03/06 04:55:25;;;;;;;7.93;4.93;;;-1.00;1.00;;;;;;4964153;28;20220;-79
2021/03/06 04:57:52;;;;;;;7.35;5.30;;;-1.10;1.00;;;;;;4982407;28;21268;-78
2021/03/06 05:00:19;;;;;;;6.60;4.93;;;-1.10;1.00;;;;;;4969605;28;20698;-79
2021/03/06 05:02:45;;;;;;;8.18;5.38;;;-1.10;1.00;;;;;;4993044;28;20256;-78
2021/03/06 05:05:12;;;;;;;4.97;4.10;;;-1.10;1.00;;;;;;4977674;28;20225;-78
2021/03/06 05:07:39;;;;;;;6.15;4.85;;;-1.10;1.00;;;;;;4976420;28;20224;-79
2021/03/06 05:10:07;;;;;;;11.43;5.75;;;-1.10;1.00;;;;;;4983839;28;20224;-79
2021/03/06 05:12:33;;;;;;;8.40;5.82;;;-1.10;1.00;;;;;;4990435;28;20232;-79
2021/03/06 05:15:00;;;;;;;7.15;5.47;;;-1.10;1.00;;;;;;4978541;28;20224;-78
2021/03/06 05:17:27;;;;;;;11.60;8.25;;;-1.10;1.00;;;;;;4981711;28;20204;-79
2021/03/06 05:19:53;;;;;;;5.40;4.82;;;-1.10;1.00;;;;;;4966270;28;20244;-78
2021/03/06 05:22:20;;;;;;;7.28;4.80;;;-1.10;1.00;;;;;;4964770;28;20212;-78
2021/03/06 05:24:48;;;;;;;7.18;4.72;;;-1.10;1.00;;;;;;4934859;28;20254;-78
2021/03/06 05:27:15;;;;;;;6.10;4.18;;;-1.10;1.00;;;;;;4967412;28;20239;-78
2021/03/06 05:29:41;;;;;;;8.98;4.60;;;-1.10;1.00;;;;;;4949834;28;20240;-78
2021/03/06 05:32:08;;;;;;;7.22;5.72;;;-1.00;1.00;;;;;;4962029;28;20253;-79
2021/03/06 05:34:35;;;;;;;8.18;5.03;;;-1.00;1.00;;;;;;4966497;28;20715;-78
2021/03/06 05:37:02;;;;;;;7.60;4.72;;;-0.80;1.00;;;;;;4961902;28;20217;-78
2021/03/06 05:39:29;;;;;;;8.48;5.28;;;-0.80;1.00;;;;;;4963920;28;20240;-78
2021/03/06 05:41:56;;;;;;;7.93;4.30;;;-0.80;1.00;;;;;;4966042;28;20366;-78
2021/03/06 05:44:25;;;;;;;7.90;4.30;;;-0.80;1.00;;;;;;4975221;28;20213;-78
2021/03/06 05:46:52;;;;;;;7.50;3.90;;;-0.70;1.00;;;;;;4967011;28;20200;-79
2021/03/06 05:49:19;;;;;;;11.25;4.85;;;-0.70;1.00;;;;;;4986788;28;20244;-78
2021/03/06 05:51:47;;;;;;;8.50;5.00;;;-0.70;1.00;;;;;;4975671;28;20292;-78
2021/03/06 05:54:14;;;;;;;8.48;4.80;;;-0.70;1.00;;;;;;4984413;28;20228;-78
2021/03/06 05:56:43;;;;;;;5.78;4.50;;;-0.70;1.00;;;;;;4960934;28;20723;-79
2021/03/06 05:59:11;;;;;;;8.15;4.63;;;-0.60;1.00;;;;;;4969352;28;20243;-79
2021/03/06 06:01:39;;;;;;;5.05;3.90;;;-0.60;1.00;;;;;;4967865;28;20228;-79
2021/03/06 06:04:07;;;;;;;9.20;4.78;;;-0.50;1.00;;;;;;4972099;28;20216;-79
2021/03/06 06:06:35;;;;;;;5.30;4.25;;;-0.50;1.00;;;;;;4965850;28;20231;-80
2021/03/06 06:09:04;;;;;;;5.70;4.45;;;-0.50;1.00;;;;;;4966789;28;20235;-79
2021/03/06 06:11:33;;;;;;;12.80;5.53;;;-0.40;1.00;;;;;;4965659;28;20213;-79
2021/03/06 06:14:01;;;;;;;8.48;5.80;;;-0.30;1.00;;;;;;4975160;28;20277;-79
2021/03/06 06:16:29;;;;;;;11.50;5.50;;;-0.30;1.00;;;;;;4977497;28;20217;-80
2021/03/06 06:18:56;;;;;;;7.10;5.30;;;-0.20;1.00;;;;;;4959275;28;20276;-79
2021/03/06 06:21:41;;;;;;;10.73;7.25;;;-0.10;1.00;;;;;;4982740;28;20228;-78
2021/03/06 06:24:09;;;;;;;10.05;5.47;;;-0.10;1.00;;;;;;4964664;28;20229;-79
2021/03/06 06:26:36;;;;;;;7.00;5.03;;;0.10;1.00;;;;;;4974573;28;20213;-78
2021/03/06 06:29:02;;;;;;;8.07;5.65;;;0.10;1.00;;;;;;4948846;28;20240;-79
2021/03/06 06:31:29;;;;;;;8.57;5.47;;;0.20;1.00;;;;;;4956484;28;20232;-79
2021/03/06 06:33:56;;;;;;;5.45;4.82;;;0.20;1.00;;;;;;4970181;28;20227;-78
2021/03/06 06:36:33;;;;;;;7.00;5.57;;;0.30;1.00;;;;;;4969216;28;20232;-80
2021/03/06 06:39:00;;;;;;;8.98;5.10;;;0.40;1.00;;;;;;4965929;28;20378;-77
2021/03/06 06:41:48;;;;;;;5.88;5.22;;;0.50;1.00;;;;;;4966016;28;20229;-78
2021/03/06 06:44:15;;;;;;;5.13;4.38;;;0.60;1.00;;;;;;4968247;28;20303;-79
2021/03/06 06:46:41;;;;;;;5.28;4.15;;;0.60;1.00;;;;;;4978547;28;20688;-79
2021/03/06 06:49:07;;;;;;;5.60;4.20;;;0.70;1.00;;;;;;4976437;28;20350;-80
2021/03/06 06:51:34;;;;;;;8.85;4.60;;;0.80;1.00;;;;;;4966481;28;20224;-78
2021/03/06 06:54:13;;;;;;;5.68;4.75;;;0.90;1.00;;;;;;4958187;28;20225;-79
2021/03/06 06:56:40;;;;;;;10.60;4.03;;;1.00;1.00;;;;;;4956305;28;20261;-80
2021/03/06 06:59:09;;;;;;;7.20;5.13;;;1.20;1.00;;;;;;4939213;28;20247;-80
2021/03/06 07:01:36;;;;;;;7.30;3.90;;;1.20;1.00;;;;;;4981228;28;20224;-78
2021/03/06 07:04:05;;;;;;;8.77;4.10;;;1.10;1.00;;;;;;4973722;28;20216;-79
2021/03/06 07:06:32;;;;;;;5.15;4.22;;;1.10;1.00;;;;;;4978648;28;20315;-78
2021/03/06 07:09:09;;;;;;;9.88;4.63;;;1.10;1.00;;;;;;4971914;28;20239;-78
2021/03/06 07:11:38;;;;;;;10.93;5.07;;;1.10;1.00;;;;;;4973660;28;20243;-79
2021/03/06 07:14:04;;;;;;;8.35;5.55;;;1.10;1.00;;;;;;4965974;28;21148;-80
2021/03/06 07:16:57;;;;;;;11.35;7.07;;;1.30;1.00;;;;;;4956315;28;20974;-79
2021/03/06 07:19:25;;;;;;;6.75;3.45;;;1.40;1.00;;;;;;4965409;28;20323;-79
2021/03/06 07:21:51;;;;;;;11.25;4.03;;;1.50;1.00;;;;;;4964286;28;20236;-79
2021/03/06 07:24:18;;;;;;;9.45;4.30;;;1.50;1.00;;;;;;4973384;28;20235;-80
2021/03/06 07:26:51;;;;;;;6.63;3.58;;;1.50;1.00;;;;;;4970396;28;20217;-79
2021/03/06 07:29:18;;;;;;;6.75;3.80;;;1.60;1.00;;;;;;4987731;28;20229;-79
2021/03/06 07:31:47;;;;;;;7.28;5.35;;;1.70;1.00;;;;;;4981722;28;20255;-79
2021/03/06 07:34:14;;;;;;;9.15;4.57;;;1.70;1.00;;;;;;4974452;28;20220;-80
2021/03/06 07:36:43;;;;;;;5.15;3.97;;;1.80;1.00;;;;;;4983835;28;20196;-80
2021/03/06 07:39:13;;;;;;;9.32;4.15;;;1.90;1.00;;;;;;4969642;28;20260;-79
2021/03/06 07:41:42;;;;;;;3.65;3.33;;;2.00;1.00;;;;;;4969313;28;20231;-79
2021/03/06 07:44:12;;;;;;;5.35;3.35;;;2.10;1.00;;;;;;4986616;28;20223;-79
2021/03/06 07:46:39;;;;;;;5.15;2.75;;;2.20;1.00;;;;;;4977621;28;20229;-78
2021/03/06 07:49:11;;;;;;;6.03;3.20;;;2.20;1.00;;;;;;4979897;28;20224;-79
2021/03/06 07:51:41;;;;;;;6.13;2.95;;;2.20;1.00;;;;;;4952690;28;20323;-79
2021/03/06 07:54:10;;;;;;;8.10;3.50;;;2.30;1.00;;;;;;4977412;28;20286;-79
2021/03/06 07:56:37;;;;;;;6.90;4.13;;;2.40;1.00;;;;;;4970789;28;20239;-79
2021/03/06 07:59:03;;;;;;;7.05;3.35;;;2.50;1.00;;;;;;4956953;28;20252;-79
2021/03/06 08:01:32;;;;;;;6.10;3.33;;;2.60;1.00;;;;;;4957013;28;20236;-79
2021/03/06 08:03:59;;;;;;;4.60;2.88;;;2.70;1.00;;;;;;4963486;28;20297;-79
2021/03/06 08:06:29;;;;;;;10.70;3.90;;;2.80;1.00;;;;;;4952320;28;20240;-79
2021/03/06 08:09:10;;;;;;;6.63;3.28;;;2.80;1.00;;;;;;4977473;28;21148;-78
2021/03/06 08:11:54;;;;;;;5.03;3.72;;;3.00;1.00;;;;;;4951929;28;20242;-81
2021/03/06 08:14:40;;;;;;;6.75;3.20;;;3.10;1.00;;;;;;4967467;28;20219;-80
2021/03/06 08:17:33;;;;;;;8.70;3.80;;;3.20;1.00;;;;;;4966930;28;20220;-81
2021/03/06 08:20:00;;;;;;;8.07;3.00;;;3.30;1.00;;;;;;4973882;28;20244;-81
2021/03/06 08:22:26;;;;;;;5.03;3.15;;;3.40;1.00;;;;;;4955551;28;20220;-79
2021/03/06 08:24:53;;;;;;;6.32;3.05;;;3.50;1.00;;;;;;4970401;28;20258;-79
2021/03/06 08:27:23;;;;;;;5.68;2.65;;;3.50;1.00;;;;;;4952280;28;20252;-81
2021/03/06 08:29:58;;;;;;;7.43;3.05;;;3.70;1.00;;;;;;4958189;28;20239;-80
2021/03/06 08:32:35;;;;;;;6.88;3.17;;;3.80;1.00;;;;;;4975793;28;20216;-79
2021/03/06 08:35:17;;;;;;;7.72;3.78;;;3.90;1.00;;;;;;4977877;28;20275;-80
2021/03/06 08:37:44;;;;;;;7.13;5.32;;;4.00;1.00;;;;;;4988792;28;20330;-81
2021/03/06 08:40:16;;;;;;;5.57;3.03;;;4.10;1.00;;;;;;4996079;28;20231;-83
2021/03/06 08:42:45;;;;;;;3.78;2.42;;;4.30;1.00;;;;;;4974187;28;20239;-82
2021/03/06 08:45:15;;;;;;;8.50;3.00;;;4.50;1.00;;;;;;4996555;28;20217;-83
2021/03/06 08:47:44;;;;;;;5.25;2.40;;;4.50;1.00;;;;;;4968558;28;20227;-81
2021/03/06 08:50:12;;;;;;;4.43;2.47;;;4.50;1.00;;;;;;4984908;28;20225;-83
2021/03/06 08:52:40;;;;;;;9.27;2.92;;;4.60;1.00;;;;;;4969551;28;20235;-81
2021/03/06 08:55:08;;;;;;;11.70;3.17;;;5.00;1.00;;;;;;4961730;28;20261;-81
2021/03/06 08:57:37;;;;;;;5.43;3.40;;;5.60;1.00;;;;;;4987968;28;20215;-77
2021/03/06 09:00:16;;;;;;;8.80;2.80;;;6.30;1.00;;;;;;4960333;28;20288;-78
2021/03/06 09:02:44;;;;;;;7.28;3.00;;;6.40;1.00;;;;;;4982674;28;20228;-78
2021/03/06 09:05:12;;;;;;;6.97;3.30;;;6.20;1.00;;;;;;4970375;28;20291;-79
2021/03/06 09:07:42;;;;;;;9.55;2.70;;;6.00;1.00;;;;;;4978584;28;20224;-77
2021/03/06 09:10:31;;;;;;;6.50;2.60;;;5.70;1.00;;;;;;4965201;28;20300;-78
2021/03/06 09:13:00;;;;;;;9.27;3.47;;;6.70;1.00;;;;;;4972089;28;20272;-78
2021/03/06 09:15:29;;;;;;;5.25;2.60;;;8.00;1.00;;;;;;4970925;28;20225;-80
2021/03/06 09:17:58;;;;;;;4.85;2.65;;;9.40;1.00;;;;;;4976817;28;21148;-81
2021/03/06 09:20:25;;;;;;;5.82;3.17;;;10.70;1.00;;;;;;4966860;28;20281;-81
2021/03/06 09:22:51;;;;;;;4.57;2.20;;;11.70;1.00;;;;;;4975926;28;20239;-79
2021/03/06 09:25:35;;;;;;;5.03;2.40;;;12.50;1.00;;;;;;4966105;28;20467;-81
2021/03/06 09:28:10;;;;;;;3.73;2.40;;;13.10;1.00;;;;;;4966072;28;20441;-81
2021/03/06 09:30:42;;;;;;;5.20;2.63;;;13.70;1.00;;;;;;4975521;28;20498;-79
2021/03/06 09:33:26;;;;;;;4.33;2.83;;;14.10;1.00;;;;;;4980224;28;20428;-78
2021/03/06 09:36:05;;;;;;;3.00;2.30;;;14.40;1.00;;;;;;4981221;28;20431;-81
2021/03/06 09:38:32;;;;;;;8.70;3.50;;;14.70;1.00;;;;;;4984653;28;20437;-81
2021/03/06 09:41:03;;;;;;;6.07;2.90;;;14.10;1.00;;;;;;4965544;28;20618;-80
2021/03/06 09:43:33;;;;;;;6.07;2.97;;;13.70;1.00;;;;;;4981450;28;20456;-81
2021/03/06 09:46:01;;;;;;;7.80;2.90;;;13.00;1.00;;;;;;4981406;28;20400;-77
2021/03/06 09:48:29;;;;;;;3.17;2.70;;;12.00;1.00;;;;;;4985141;28;20416;-78
2021/03/06 09:50:59;;;;;;;5.80;2.85;;;11.10;1.00;;;;;;4983210;28;22050;-80
2021/03/06 09:53:28;;;;;;;5.88;2.60;;;10.40;1.00;;;;;;4962472;28;20263;-83
2021/03/06 09:56:10;;;;;;;5.70;2.88;;;9.70;1.00;;;;;;4966718;28;20226;-80
2021/03/06 09:58:37;;;;;;;5.63;3.25;;;9.30;1.00;;;;;;4973905;28;20275;-81
2021/03/06 10:01:15;;;;;;;6.65;3.70;;;9.00;1.00;;;;;;4966686;28;20229;-82
2021/03/06 10:03:44;;;;;;;4.25;2.95;;;8.60;1.00;;;;;;4970865;28;20220;-78
2021/03/06 10:06:11;;;;;;;3.33;2.80;;;8.50;1.00;;;;;;4967523;28;20299;-79
2021/03/06 10:08:43;;;;;;;4.22;2.67;;;8.50;1.00;;;;;;4973131;28;20883;-79
2021/03/06 10:11:10;;;;;;;6.28;2.72;;;8.30;1.00;;;;;;4965163;28;20334;-78
2021/03/06 10:13:37;;;;;;;5.50;3.33;;;8.20;1.00;;;;;;4955902;28;20236;-79
2021/03/06 10:16:04;;;;;;;5.40;2.75;;;8.20;1.00;;;;;;4976132;28;20271;-80
2021/03/06 10:18:40;;;;;;;6.75;2.95;;;8.10;1.00;;;;;;4965525;28;20331;-79
2021/03/06 10:21:12;;;;;;;9.15;3.10;;;8.10;1.00;;;;;;4957796;28;20240;-79
2021/03/06 10:23:39;;;;;;;8.45;2.78;;;8.00;1.00;;;;;;4959964;28;20255;-78
2021/03/06 10:26:23;;;;;;;5.20;3.13;;;7.60;1.00;;;;;;4983547;28;20212;-79
2021/03/06 10:28:53;;;;;;;5.05;3.88;;;7.30;1.00;;;;;;4959618;28;20232;-79
2021/03/06 10:31:35;;;;;;;5.20;3.10;;;7.10;1.00;;;;;;4958779;28;20236;-80
2021/03/06 10:34:15;;;;;;;5.07;2.80;;;6.80;1.00;;;;;;4969922;28;20216;-78
2021/03/06 10:36:44;;;;;;;9.23;3.00;;;6.80;1.00;;;;;;4958963;28;20683;-80
2021/03/06 10:39:16;;;;;;;7.47;3.67;;;7.00;1.00;;;;;;4970760;28;20232;-78
2021/03/06 10:41:43;;;;;;;5.25;2.50;;;7.10;1.00;;;;;;4975399;28;20228;-79
2021/03/06 10:44:09;;;;;;;8.93;4.10;;;7.40;1.00;;;;;;4949630;28;20232;-79
2021/03/06 10:46:36;;;;;;;5.55;3.45;;;7.80;1.00;;;;;;4980749;28;20228;-78
2021/03/06 10:49:04;;;;;;;4.47;2.67;;;8.30;1.00;;;;;;4968921;28;20220;-80
2021/03/06 10:51:44;;;;;;;6.07;3.08;;;8.70;1.00;;;;;;4959303;28;20220;-79
2021/03/06 10:54:11;;;;;;;5.93;3.25;;;9.50;1.00;;;;;;4954876;28;20212;-79
2021/03/06 10:56:38;;;;;;;6.13;3.25;;;9.40;1.00;;;;;;4971325;28;20217;-79
2021/03/06 10:59:05;;;;;;;4.80;2.90;;;8.90;1.00;;;;;;4967186;28;20581;-78
2021/03/06 11:01:33;;;;;;;7.93;3.30;;;8.50;1.00;;;;;;4971906;28;20349;-79
2021/03/06 11:04:00;;;;;;;6.93;3.03;;;8.20;1.00;;;;;;4950288;28;20232;-79
2021/03/06 11:06:26;;;;;;;7.28;3.78;;;8.10;1.00;;;;;;4949103;28;20279;-79
2021/03/06 11:09:02;;;;;;;6.90;3.75;;;7.90;1.00;;;;;;4949764;28;20244;-80
2021/03/06 11:11:29;;;;;;;7.28;3.65;;;7.40;1.00;;;;;;4971540;28;20926;-78
2021/03/06 11:13:55;;;;;;;7.72;3.95;;;7.20;1.00;;;;;;4964416;28;20263;-79
2021/03/06 11:16:38;;;;;;;7.60;3.92;;;6.90;1.00;;;;;;4951396;28;20232;-79
2021/03/06 11:19:05;;;;;;;7.38;3.40;;;6.20;1.00;;;;;;4967623;28;20243;-79
2021/03/06 11:21:32;;;;;;;6.22;3.60;;;5.90;1.00;;;;;;4976823;28;20259;-79
2021/03/06 11:23:59;;;;;;;7.78;4.10;;;5.60;1.00;;;;;;4952954;28;20331;-77
2021/03/06 11:26:26;;;;;;;4.53;4.05;;;5.40;1.00;;;;;;4981181;28;20228;-79
2021/03/06 11:28:54;;;;;;;6.53;4.95;;;5.30;1.00;;;;;;4977203;28;20228;-77
2021/03/06 11:31:20;;;;;;;7.15;4.18;;;5.20;1.00;;;;;;4965574;28;20244;-78
2021/03/06 11:33:46;;;;;;;6.07;5.25;;;5.10;1.00;;;;;;4978953;28;20235;-79
2021/03/06 11:36:13;;;;;;;5.80;4.40;;;5.20;1.00;;;;;;4966131;28;20223;-80
2021/03/06 11:38:39;;;;;;;5.38;4.03;;;5.20;1.00;;;;;;4956884;28;20239;-79
2021/03/06 11:41:07;;;;;;;12.43;4.65;;;5.20;1.00;;;;;;4964800;28;20232;-78
2021/03/06 11:43:33;;;;;;;8.35;4.55;;;5.20;1.00;;;;;;4957547;28;20232;-79
2021/03/06 11:45:59;;;;;;;6.15;4.43;;;5.30;1.00;;;;;;4968592;28;20227;-79
2021/03/06 11:48:26;;;;;;;6.68;4.93;;;5.30;1.00;;;;;;4973404;28;20249;-78
2021/03/06 11:50:52;;;;;;;6.78;5.05;;;5.40;1.00;;;;;;4953167;28;20739;-79
2021/03/06 11:53:19;;;;;;;8.30;6.25;;;5.40;1.00;;;;;;4973988;28;20244;-80
2021/03/06 11:55:45;;;;;;;10.75;6.85;;;5.40;1.00;;;;;;4973320;28;20223;-78
2021/03/06 11:58:13;;;;;;;8.52;7.50;;;5.70;1.00;;;;;;4972824;28;20251;-78
2021/03/06 12:00:39;;;;;;;9.82;7.90;;;5.90;1.00;;;;;;4974579;28;21312;-78
2021/03/06 12:03:06;;;;;;;8.18;7.20;;;6.00;1.00;;;;;;4979880;28;20221;-79
2021/03/06 12:05:33;;;;;;;9.45;6.18;;;6.30;1.00;;;;;;4955543;28;20253;-80
2021/03/06 12:07:59;;;;;;;20.58;9.35;;;6.50;1.00;;;;;;4990860;28;20224;-79
2021/03/06 12:10:28;;;;;;;10.20;6.05;;;6.50;1.00;;;;;;4975337;28;20235;-79
2021/03/06 12:12:55;;;;;;;16.33;9.10;;;6.50;1.00;;;;;;4990687;28;20235;-79
2021/03/06 12:15:27;;;;;;;8.68;7.60;;;6.40;1.00;;;;;;4973136;28;20228;-80
2021/03/06 12:17:54;;;;;;;13.10;11.80;;;6.30;1.00;;;;;;4984784;28;20205;-78
2021/03/06 12:20:21;;;;;;;11.65;9.82;;;6.10;1.00;;;;;;4990577;28;20228;-80
2021/03/06 12:22:48;;;;;;;12.27;10.77;;;5.90;1.00;;;;;;4986950;28;20255;-79
2021/03/06 12:25:16;;;;;;;13.73;11.05;;;5.70;1.00;;;;;;4987923;28;20260;-78
2021/03/06 12:27:43;;;;;;;11.60;9.55;;;5.70;1.00;;;;;;4978707;28;20213;-79
2021/03/06 12:30:17;;;;;;;9.70;8.05;;;5.70;1.00;;;;;;4977910;28;20228;-80
2021/03/06 12:32:47;;;;;;;8.95;7.03;;;5.70;1.00;;;;;;4987865;28;20268;-80
2021/03/06 12:35:14;;;;;;;10.80;7.68;;;5.60;1.00;;;;;;4995836;28;20228;-84
2021/03/06 12:37:42;;;;;;;8.60;7.07;;;5.70;1.00;;;;;;4989405;28;20256;-82
2021/03/06 12:40:13;;;;;;;10.15;7.07;;;5.60;1.00;;;;;;5033067;23;20554;-83
2021/03/06 12:42:43;;;;;;;14.25;8.27;;;5.40;1.00;;;;;;4950494;28;20212;-83
2021/03/06 12:45:11;;;;;;;10.88;9.77;;;5.20;1.00;;;;;;4953777;28;20289;-83
2021/03/06 12:47:41;;;;;;;14.75;10.75;;;5.10;1.00;;;;;;4953907;28;20281;-80
2021/03/06 12:50:18;;;;;;;7.70;6.75;;;5.20;1.00;;;;;;4956195;28;20225;-80
2021/03/06 12:52:47;;;;;;;10.25;6.65;;;5.20;1.00;;;;;;4945619;28;20245;-77
2021/03/06 12:55:13;;;;;;;9.88;7.03;;;5.20;1.00;;;;;;4939281;28;20257;-77
2021/03/06 12:57:40;;;;;;;7.18;6.47;;;5.20;1.00;;;;;;4943005;28;21001;-78
2021/03/06 13:00:08;;;;;;;7.00;6.30;;;5.10;1.00;;;;;;4932088;29;20365;-76
2021/03/06 13:02:35;;;;;;;8.90;7.97;;;5.10;1.00;;;;;;4927542;29;21024;-77
2021/03/06 13:05:01;;;;;;;8.88;6.75;;;5.20;1.00;;;;;;4919602;28;20237;-74
2021/03/06 13:07:28;;;;;;;8.35;7.00;;;5.30;1.00;;;;;;4928692;29;21457;-76
2021/03/06 13:09:55;;;;;;;6.75;6.03;;;5.20;1.00;;;;;;4928806;28;21129;-75